createdAt,value
2018-05-29T00:01:31.220Z,100055.23
2018-05-29T00:03:57.171Z,100050.87
2018-05-29T00:06:23.138Z,100049.39
2018-05-29T00:08:49.099Z,100047.08
2018-05-29T00:11:16.171Z,100046.17
2018-05-29T00:13:42.126Z,100039.88
2018-05-29T00:16:08.080Z,100036.23
2018-05-29T00:18:34.040Z,100044.61
2018-05-29T00:20:59.995Z,100043.14
2018-05-29T00:23:26.264Z,100037.83
2018-05-29T00:25:52.236Z,100045.43
2018-05-29T00:28:18.175Z,100033.40
2018-05-29T00:30:44.108Z,100033.77
2018-05-29T00:33:10.062Z,100028.86
2018-05-29T00:35:36.003Z,100025.17
2018-05-29T00:38:01.973Z,100022.34
2018-05-29T00:40:27.934Z,100022.12
2018-05-29T00:42:53.874Z,100020.35
2018-05-29T00:45:19.806Z,100017.55
2018-05-29T00:47:45.749Z,100014.49
2018-05-29T00:50:11.703Z,100014.88
2018-05-29T00:52:37.654Z,100010.56
2018-05-29T00:55:03.608Z,100011.35
2018-05-29T00:57:29.563Z,100005.73
2018-05-29T00:59:55.510Z,100004.02
2018-05-29T01:02:21.453Z,100004.11
2018-05-29T01:04:47.414Z,100007.81
2018-05-29T01:07:13.381Z,100010.84
2018-05-29T01:09:39.404Z,100004.56
2018-05-29T01:12:05.392Z,100005.08
2018-05-29T01:14:31.348Z,100007.71
2018-05-29T01:16:57.332Z,100008.19
2018-05-29T01:19:23.267Z,100014.58
2018-05-29T01:21:49.215Z,100013.27
2018-05-29T01:24:15.165Z,100014.59
2018-05-29T01:26:41.116Z,100016.94
2018-05-29T01:29:07.074Z,100009.30
2018-05-29T01:31:33.054Z,100009.04
2018-05-29T01:33:59.025Z,100012.63
2018-05-29T01:36:24.979Z,100010.70
2018-05-29T01:38:50.946Z,100009.51
2018-05-29T01:41:16.931Z,99999.30
2018-05-29T01:43:42.895Z,100005.78
2018-05-29T01:46:08.841Z,99994.45
2018-05-29T01:48:35.018Z,100007.11
2018-05-29T01:51:00.961Z,100000.81
2018-05-29T01:53:26.906Z,99996.38
2018-05-29T01:55:52.851Z,99996.86
2018-05-29T01:58:18.804Z,99988.32
2018-05-29T02:00:44.756Z,99983.56
2018-05-29T02:03:10.732Z,99977.20
2018-05-29T02:05:36.692Z,99973.84
2018-05-29T02:08:02.668Z,99967.20
2018-05-29T02:10:29.232Z,99969.19
2018-05-29T02:12:55.202Z,99966.56
2018-05-29T02:15:21.162Z,99970.08
2018-05-29T02:17:47.105Z,99969.41
2018-05-29T02:20:13.045Z,99968.02
2018-05-29T02:22:38.982Z,99961.13
2018-05-29T02:25:04.953Z,99958.83
2018-05-29T02:27:30.944Z,99954.62
2018-05-29T02:29:56.919Z,99948.25
2018-05-29T02:32:22.889Z,99952.57
2018-05-29T02:34:48.870Z,99950.38
2018-05-29T02:37:14.833Z,99948.48
2018-05-29T02:39:40.769Z,99947.14
2018-05-29T02:42:06.735Z,99943.28
2018-05-29T02:44:32.693Z,99940.59
2018-05-29T02:46:58.629Z,99939.83
2018-05-29T02:49:24.576Z,99933.59
2018-05-29T02:51:50.520Z,99937.94
2018-05-29T02:54:16.482Z,99944.61
2018-05-29T02:56:42.432Z,99943.04
2018-05-29T02:59:08.388Z,99943.33
2018-05-29T03:01:34.404Z,99940.34
2018-05-29T03:04:00.371Z,99938.05
2018-05-29T03:06:26.312Z,99950.59
2018-05-29T03:08:52.383Z,99940.16
2018-05-29T03:11:18.333Z,99938.22
2018-05-29T03:13:44.304Z,99944.76
2018-05-29T03:16:10.245Z,99941.70
2018-05-29T03:18:36.225Z,99942.59
2018-05-29T03:21:02.194Z,99950.30
2018-05-29T03:23:28.156Z,99949.47
2018-05-29T03:25:54.139Z,99951.25
2018-05-29T03:28:20.107Z,99953.50
2018-05-29T03:30:46.077Z,99953.01
2018-05-29T03:33:12.049Z,99948.08
2018-05-29T03:35:38.017Z,99952.72
2018-05-29T03:38:03.963Z,99954.39
2018-05-29T03:40:29.971Z,99953.53
2018-05-29T03:42:55.975Z,99945.61
2018-05-29T03:45:21.923Z,99946.58
2018-05-29T03:47:47.856Z,99941.39
2018-05-29T03:50:13.816Z,99942.95
2018-05-29T03:52:39.760Z,99939.75
2018-05-29T03:55:05.726Z,99944.51
2018-05-29T03:57:31.691Z,99945.42
2018-05-29T03:59:57.686Z,99949.59
2018-05-29T04:02:23.628Z,99943.45
2018-05-29T04:04:49.589Z,99941.91
2018-05-29T04:07:15.554Z,99937.25
2018-05-29T04:09:41.551Z,99936.21
2018-05-29T04:12:07.523Z,99943.33
2018-05-29T04:14:34.283Z,99938.58
2018-05-29T04:17:00.270Z,99935.97
2018-05-29T04:19:26.204Z,99940.38
2018-05-29T04:21:52.154Z,99943.91
2018-05-29T04:24:18.118Z,99943.48
2018-05-29T04:26:44.047Z,99942.69
2018-05-29T04:29:10.011Z,99941.55
2018-05-29T04:31:37.005Z,99944.40
2018-05-29T04:34:02.968Z,99949.10
2018-05-29T04:36:29.038Z,99945.84
2018-05-29T04:38:55.021Z,99938.70
2018-05-29T04:41:20.966Z,99942.56
2018-05-29T04:43:46.927Z,99943.54
2018-05-29T04:46:12.919Z,99943.48
2018-05-29T04:48:38.876Z,99942.89
2018-05-29T04:51:04.854Z,99944.36
2018-05-29T04:53:30.814Z,99946.19
2018-05-29T04:55:56.774Z,99940.00
2018-05-29T04:58:22.701Z,99940.70
2018-05-29T05:00:48.646Z,99937.75
2018-05-29T05:03:14.596Z,99941.38
2018-05-29T05:05:40.564Z,99946.48
2018-05-29T05:08:06.527Z,99940.11
2018-05-29T05:10:32.463Z,99936.95
2018-05-29T05:12:58.409Z,99939.97
2018-05-29T05:15:24.365Z,99938.28
2018-05-29T05:17:53.613Z,99938.03
2018-05-29T05:20:19.628Z,99936.75
2018-05-29T05:22:45.545Z,99935.35
2018-05-29T05:25:11.514Z,99934.53
2018-05-29T05:27:37.467Z,99932.60
2018-05-29T05:30:03.451Z,99933.55
2018-05-29T05:32:29.403Z,99935.97
2018-05-29T05:34:55.391Z,99930.17
2018-05-29T05:37:21.342Z,99934.61
2018-05-29T05:39:47.343Z,99933.52
2018-05-29T05:42:13.302Z,99934.69
2018-05-29T05:44:39.251Z,99933.19
2018-05-29T05:47:05.237Z,99927.36
2018-05-29T05:49:31.202Z,99922.90
2018-05-29T05:51:57.163Z,99929.81
2018-05-29T05:54:23.104Z,99924.86
2018-05-29T05:56:49.049Z,99928.11
2018-05-29T05:59:15.020Z,99935.39
2018-05-29T06:01:40.983Z,99937.92
2018-05-29T06:04:06.944Z,99931.61
2018-05-29T06:06:33.144Z,99935.17
2018-05-29T06:08:59.158Z,99928.09
2018-05-29T06:11:25.119Z,99933.04
2018-05-29T06:13:51.087Z,99936.56
2018-05-29T06:16:17.036Z,99924.56
2018-05-29T06:18:43.072Z,99922.53
2018-05-29T06:21:09.108Z,99923.56
2018-05-29T06:23:35.088Z,99917.87
2018-05-29T06:26:01.137Z,99919.09
2018-05-29T06:28:27.125Z,99923.23
2018-05-29T06:30:53.108Z,99920.80
2018-05-29T06:33:19.064Z,99916.70
2018-05-29T06:35:45.029Z,99928.14
2018-05-29T06:38:11.068Z,99922.63
2018-05-29T06:40:36.972Z,99915.52
2018-05-29T06:43:02.919Z,99916.50
2018-05-29T06:45:28.893Z,99914.95
2018-05-29T06:47:54.862Z,99918.38
2018-05-29T06:50:20.841Z,99906.62
2018-05-29T06:52:46.807Z,99916.67
2018-05-29T06:55:12.794Z,99908.99
2018-05-29T06:57:38.713Z,99907.08
2018-05-29T07:00:04.710Z,99910.58
2018-05-29T07:02:30.796Z,99906.70
2018-05-29T07:04:56.777Z,99901.20
2018-05-29T07:07:22.717Z,99900.74
2018-05-29T07:09:48.657Z,99899.42
2018-05-29T07:12:14.612Z,99905.80
2018-05-29T07:14:40.585Z,99896.93
2018-05-29T07:17:06.516Z,99894.64
2018-05-29T07:19:32.456Z,99899.20
2018-05-29T07:21:58.391Z,99903.98
2018-05-29T07:24:24.417Z,99899.52
2018-05-29T07:26:50.380Z,99887.70
2018-05-29T07:29:16.363Z,99892.19
2018-05-29T07:31:42.334Z,99890.01
2018-05-29T07:34:08.285Z,99886.20
2018-05-29T07:36:34.217Z,99879.11
2018-05-29T07:39:03.074Z,99871.80
2018-05-29T07:41:29.229Z,99888.36
2018-05-29T07:43:55.243Z,99877.04
2018-05-29T07:46:21.220Z,99878.58
2018-05-29T07:48:47.174Z,99880.97
2018-05-29T07:51:13.160Z,99884.19
2018-05-29T07:53:39.130Z,99873.91
2018-05-29T07:56:05.091Z,99870.26
2018-05-29T07:58:31.042Z,99866.47
2018-05-29T08:00:57.033Z,99864.31
2018-05-29T08:03:22.962Z,99868.05
2018-05-29T08:05:48.942Z,99865.45
2018-05-29T08:08:14.880Z,99863.97
2018-05-29T08:10:40.940Z,99863.37
2018-05-29T08:13:06.856Z,99865.61
2018-05-29T08:15:32.801Z,99863.83
2018-05-29T08:17:58.746Z,99852.12
2018-05-29T08:20:24.716Z,99847.39
2018-05-29T08:22:50.674Z,99852.09
2018-05-29T08:25:16.631Z,99852.91
2018-05-29T08:27:42.583Z,99839.86
2018-05-29T08:30:08.556Z,99839.47
2018-05-29T08:32:34.518Z,99848.09
2018-05-29T08:35:00.470Z,99842.34
2018-05-29T08:37:26.421Z,99850.42
2018-05-29T08:39:52.350Z,99840.00
2018-05-29T08:42:18.289Z,99838.77
2018-05-29T08:44:44.240Z,99837.16
2018-05-29T08:47:10.202Z,99846.67
2018-05-29T08:49:36.143Z,99839.25
2018-05-29T08:52:02.085Z,99831.54
2018-05-29T08:54:28.111Z,99836.70
2018-05-29T08:56:54.060Z,99829.44
2018-05-29T08:59:19.998Z,99822.03
2018-05-29T09:01:45.940Z,99828.76
2018-05-29T09:04:11.916Z,99818.37
2018-05-29T09:06:37.880Z,99817.01
2018-05-29T09:09:03.839Z,99814.70
2018-05-29T09:11:29.834Z,99810.18
2018-05-29T09:13:55.787Z,99813.25
2018-05-29T09:16:21.901Z,99823.06
2018-05-29T09:18:47.866Z,99824.10
2018-05-29T09:21:13.806Z,99821.48
2018-05-29T09:23:39.763Z,99823.00
2018-05-29T09:26:05.747Z,99820.24
2018-05-29T09:28:31.702Z,99814.29
2018-05-29T09:30:57.684Z,99800.17
2018-05-29T09:33:23.650Z,99803.41
2018-05-29T09:35:49.590Z,99830.08
2018-05-29T09:38:15.550Z,99808.23
2018-05-29T09:40:41.505Z,99809.30
2018-05-29T09:43:07.449Z,99805.16
2018-05-29T09:45:33.412Z,99810.44
2018-05-29T09:47:59.382Z,99816.32
2018-05-29T09:50:25.370Z,99795.06
2018-05-29T09:52:51.327Z,99808.98
2018-05-29T09:55:17.311Z,99787.23
2018-05-29T09:57:43.267Z,99791.41
2018-05-29T10:00:09.220Z,99791.89
2018-05-29T10:02:35.187Z,99792.08
2018-05-29T10:05:01.167Z,99801.28
2018-05-29T10:07:27.141Z,99785.00
2018-05-29T10:09:53.110Z,99784.84
2018-05-29T10:12:19.112Z,99785.61
2018-05-29T10:14:45.084Z,99773.44
2018-05-29T10:17:11.087Z,99771.53
2018-05-29T10:19:37.063Z,99752.61
2018-05-29T10:22:03.031Z,99758.38
2018-05-29T10:24:28.995Z,99765.97
2018-05-29T10:26:54.932Z,99790.17
2018-05-29T10:29:20.889Z,99765.89
2018-05-29T10:31:46.843Z,99771.06
2018-05-29T10:34:12.769Z,99767.73
2018-05-29T10:36:38.708Z,99756.31
2018-05-29T10:39:04.657Z,99755.52
2018-05-29T10:41:30.621Z,99746.09
2018-05-29T10:43:56.593Z,99750.54
2018-05-29T10:46:22.541Z,99742.09
2018-05-29T10:48:48.515Z,99733.72
2018-05-29T10:51:14.482Z,99729.80
2018-05-29T10:53:40.435Z,99741.92
2018-05-29T10:56:06.374Z,99740.47
2018-05-29T10:58:32.321Z,99753.92
2018-05-29T11:00:58.282Z,99752.81
2018-05-29T11:03:24.248Z,99740.11
2018-05-29T11:05:50.206Z,99728.33
2018-05-29T11:08:16.188Z,99725.47
2018-05-29T11:10:42.252Z,99718.46
2018-05-29T11:13:08.217Z,99724.81
2018-05-29T11:15:34.191Z,99722.41
2018-05-29T11:18:00.163Z,99715.89
2018-05-29T11:20:26.117Z,99716.16
2018-05-29T11:22:52.079Z,99711.44
2018-05-29T11:25:18.050Z,99712.03
2018-05-29T11:27:43.988Z,99720.63
2018-05-29T11:30:09.949Z,99709.72
2018-05-29T11:32:35.921Z,99714.30
2018-05-29T11:35:01.892Z,99716.57
2018-05-29T11:37:27.848Z,99706.28
2018-05-29T11:39:53.850Z,99708.27
2018-05-29T11:42:19.892Z,99699.97
2018-05-29T11:44:45.875Z,99704.59
2018-05-29T11:47:12.701Z,99696.97
2018-05-29T11:49:38.670Z,99701.13
2018-05-29T11:52:04.632Z,99705.98
2018-05-29T11:54:30.586Z,99698.32
2018-05-29T11:56:56.543Z,99703.78
2018-05-29T11:59:22.489Z,99694.97
2018-05-29T12:01:48.449Z,99696.57
2018-05-29T12:04:14.423Z,99692.70
2018-05-29T12:06:40.399Z,99691.25
2018-05-29T12:09:06.362Z,99669.86
2018-05-29T12:11:32.293Z,99676.18
2018-05-29T12:13:58.253Z,99685.66
2018-05-29T12:16:24.247Z,99678.96
2018-05-29T12:18:50.220Z,99684.56
2018-05-29T12:21:16.344Z,99679.26
2018-05-29T12:23:42.362Z,99675.19
2018-05-29T12:26:08.353Z,99668.16
2018-05-29T12:28:34.585Z,99673.36
2018-05-29T12:31:00.603Z,99688.00
2018-05-29T12:33:26.594Z,99673.69
2018-05-29T12:35:52.577Z,99667.30
2018-05-29T12:38:18.615Z,99659.31
2018-05-29T12:40:44.602Z,99652.71
2018-05-29T12:43:10.655Z,99647.52
2018-05-29T12:45:36.631Z,99656.34
2018-05-29T12:48:02.575Z,99656.78
2018-05-29T12:50:28.562Z,99645.02
2018-05-29T12:52:54.548Z,99643.83
2018-05-29T12:55:20.512Z,99638.69
2018-05-29T12:57:46.525Z,99647.66
2018-05-29T13:00:12.678Z,99637.56
2018-05-29T13:05:15.655Z,99649.05
2018-05-29T13:07:42.502Z,99636.66
2018-05-29T13:10:08.552Z,99624.22
2018-05-29T13:12:34.607Z,99615.05
2018-05-29T13:15:00.683Z,99622.88
2018-05-29T13:17:26.709Z,99625.86
2018-05-29T13:19:52.896Z,99621.27
2018-05-29T13:22:18.912Z,99614.13
2018-05-29T13:24:47.012Z,99616.43
2018-05-29T13:27:13.070Z,99622.67
2018-05-29T13:29:39.099Z,99613.92
2018-05-29T13:32:05.163Z,99604.66
2018-05-29T13:34:31.200Z,99607.16
2018-05-29T13:36:57.226Z,99609.71
2018-05-29T13:39:23.233Z,99611.25
2018-05-29T13:41:49.237Z,99611.61
2018-05-29T13:44:15.233Z,99605.97
2018-05-29T13:46:41.223Z,99603.38
2018-05-29T13:49:07.209Z,99601.84
2018-05-29T13:51:33.198Z,99599.14
2018-05-29T13:53:59.168Z,99588.20
2018-05-29T13:56:25.171Z,99586.59
2018-05-29T13:58:51.099Z,99584.67
2018-05-29T14:01:17.125Z,99587.44
2018-05-29T14:03:43.104Z,99584.58
2018-05-29T14:06:09.063Z,99577.63
2018-05-29T14:08:35.250Z,99579.31
2018-05-29T14:11:01.272Z,99576.38
2018-05-29T14:15:58.722Z,99579.08
2018-05-29T14:18:24.779Z,99575.72
2018-05-29T14:20:50.841Z,99569.73
2018-05-29T14:23:16.801Z,99564.50
2018-05-29T14:25:43.872Z,99573.68
2018-05-29T14:28:11.988Z,99567.94
2018-05-29T14:30:38.044Z,99576.27
2018-05-29T14:33:04.082Z,99568.92
2018-05-29T14:35:30.081Z,99564.05
2018-05-29T14:37:58.641Z,99576.38
2018-05-29T14:40:24.718Z,99570.88
2018-05-29T14:42:50.817Z,99565.77
2018-05-29T14:45:16.834Z,99568.39
2018-05-29T14:47:42.941Z,99567.63
2018-05-29T14:50:08.914Z,99559.98
2018-05-29T14:52:35.074Z,99547.45
2018-05-29T14:55:01.041Z,99553.38
2018-05-29T14:57:27.059Z,99549.80
2018-05-29T14:59:55.582Z,99487.73
2018-05-29T15:02:21.617Z,99549.06
2018-05-29T15:04:47.628Z,99540.10
2018-05-29T15:07:13.626Z,99535.06
2018-05-29T15:09:44.797Z,99540.34
2018-05-29T15:12:10.794Z,99527.15
2018-05-29T15:14:37.898Z,99527.15
2018-05-29T15:17:03.861Z,99521.09
2018-05-29T15:19:29.915Z,99514.71
2018-05-29T15:21:55.930Z,99510.66
2018-05-29T15:24:21.935Z,99513.52
2018-05-29T15:26:47.988Z,99505.44
2018-05-29T15:29:14.016Z,99501.88
2018-05-29T15:31:40.046Z,99497.50
2018-05-29T15:34:07.150Z,99493.32
2018-05-29T15:36:33.210Z,99495.59
2018-05-29T15:38:59.225Z,99491.60
2018-05-29T15:41:25.250Z,99491.59
2018-05-29T15:43:51.271Z,99491.17
2018-05-29T15:46:17.301Z,99484.22
2018-05-29T15:48:43.331Z,99489.91
2018-05-29T15:51:10.411Z,99491.88
2018-05-29T15:53:36.395Z,99482.03
2018-05-29T15:56:02.422Z,99498.80
2018-05-29T15:58:28.445Z,99490.12
2018-05-29T16:00:54.495Z,99489.39
2018-05-29T16:03:20.507Z,99499.54
2018-05-29T16:05:46.589Z,99482.63
2018-05-29T16:08:12.662Z,99478.81
2018-05-29T16:10:38.664Z,99479.94
2018-05-29T16:13:04.674Z,99481.61
2018-05-29T16:18:06.637Z,99481.11
2018-05-29T16:20:32.766Z,99475.36
2018-05-29T16:22:58.794Z,99476.23
2018-05-29T16:25:25.880Z,99470.28
2018-05-29T16:27:52.895Z,99470.36
2018-05-29T16:30:18.916Z,99467.05
2018-05-29T16:32:44.991Z,99473.16
2018-05-29T16:35:11.059Z,99464.55
2018-05-29T16:37:37.124Z,99461.50
2018-05-29T16:40:03.124Z,99462.79
2018-05-29T16:42:32.263Z,99466.97
2018-05-29T16:45:00.330Z,99461.48
2018-05-29T16:47:26.352Z,99470.84
2018-05-29T16:49:52.382Z,99463.94
2018-05-29T16:52:19.431Z,99464.30
2018-05-29T16:54:45.407Z,99470.96
2018-05-29T16:57:11.431Z,99469.57
2018-05-29T16:59:37.480Z,99479.42
2018-05-29T17:02:03.514Z,99479.56
2018-05-29T17:04:29.524Z,99480.27
2018-05-29T17:06:55.564Z,99483.30
2018-05-29T17:09:21.588Z,99474.66
2018-05-29T17:11:47.645Z,99481.13
2018-05-29T17:14:13.637Z,99478.25
2018-05-29T17:16:39.624Z,99478.07
2018-05-29T17:19:07.608Z,99481.86
2018-05-29T17:21:34.729Z,99479.66
2018-05-29T17:24:02.754Z,99488.09
2018-05-29T17:26:28.903Z,99484.59
2018-05-29T17:28:54.898Z,99481.20
2018-05-29T17:31:20.945Z,99490.54
2018-05-29T17:33:46.909Z,99483.75
2018-05-29T17:36:15.190Z,99488.58
2018-05-29T17:38:41.266Z,99485.92
2018-05-29T17:41:07.346Z,99488.30
2018-05-29T17:43:33.400Z,99489.45
2018-05-29T17:45:59.395Z,99500.79
2018-05-29T17:48:25.581Z,99503.94
2018-05-29T17:50:51.780Z,99506.08
2018-05-29T17:53:18.202Z,99513.73
2018-05-29T17:55:44.725Z,99511.88
2018-05-29T17:58:11.287Z,99515.38
2018-05-29T18:00:37.703Z,99509.47
2018-05-29T18:03:04.763Z,99503.19
2018-05-29T18:05:30.797Z,99510.19
2018-05-29T18:07:56.817Z,99502.17
2018-05-29T18:10:22.830Z,99505.98
2018-05-29T18:12:48.830Z,99499.62
2018-05-29T18:15:14.866Z,99508.67
2018-05-29T18:17:40.905Z,99507.17
2018-05-29T18:20:06.872Z,99508.14
2018-05-29T18:22:33.007Z,99503.03
2018-05-29T18:24:59.111Z,99501.77
2018-05-29T18:27:25.148Z,99502.61
2018-05-29T18:29:51.310Z,99509.20
2018-05-29T18:32:17.515Z,99512.89
2018-05-29T18:34:43.930Z,99513.27
2018-05-29T18:37:10.362Z,99516.20
2018-05-29T18:39:36.497Z,99513.36
2018-05-29T18:42:02.593Z,99517.80
2018-05-29T18:44:28.802Z,99525.71
2018-05-29T18:46:54.970Z,99527.33
2018-05-29T18:49:21.065Z,99533.25
2018-05-29T18:51:47.197Z,99539.08
2018-05-29T18:54:13.189Z,99538.41
2018-05-29T18:56:39.272Z,99547.27
2018-05-29T18:59:05.256Z,99543.36
2018-05-29T19:01:31.289Z,99550.13
2018-05-29T19:03:57.257Z,99552.77
2018-05-29T19:06:23.292Z,99553.20
2018-05-29T19:08:49.345Z,99550.74
2018-05-29T19:11:15.370Z,99560.41
2018-05-29T19:13:41.372Z,99558.21
2018-05-29T19:16:07.393Z,99550.68
2018-05-29T19:18:33.469Z,99554.36
2018-05-29T19:20:59.491Z,99558.98
2018-05-29T19:23:25.536Z,99556.66
2018-05-29T19:25:51.508Z,99565.38
2018-05-29T19:28:18.537Z,99565.32
2018-05-29T19:30:44.475Z,99568.22
2018-05-29T19:33:10.634Z,99579.02
2018-05-29T19:35:36.585Z,99587.08
2018-05-29T19:38:02.556Z,99585.28
2018-05-29T19:40:28.539Z,99580.27
2018-05-29T19:42:54.620Z,99577.19
2018-05-29T19:45:20.761Z,99579.33
2018-05-29T19:47:46.734Z,99586.49
2018-05-29T19:50:12.693Z,99588.81
2018-05-29T19:52:38.685Z,99590.74
2018-05-29T19:55:04.738Z,99597.53
2018-05-29T19:57:30.714Z,99597.66
2018-05-29T19:59:56.725Z,99600.52
2018-05-29T20:02:22.703Z,99605.00
2018-05-29T20:04:48.816Z,99606.16
2018-05-29T20:07:14.832Z,99610.59
2018-05-29T20:09:40.898Z,99613.23
2018-05-29T20:12:09.037Z,99615.52
2018-05-29T20:14:35.045Z,99616.38
2018-05-29T20:17:01.069Z,99620.01
2018-05-29T20:19:27.011Z,99618.79
2018-05-29T20:21:52.990Z,99617.28
2018-05-29T20:24:19.056Z,99621.38
2018-05-29T20:26:44.997Z,99617.06
2018-05-29T20:29:10.956Z,99612.91
2018-05-29T20:31:36.940Z,99618.83
2018-05-29T20:34:02.977Z,99616.94
2018-05-29T20:36:28.951Z,99623.75
2018-05-29T20:38:54.949Z,99631.11
2018-05-29T20:41:20.914Z,99643.48
2018-05-29T20:43:46.907Z,99651.83
2018-05-29T20:46:12.825Z,99667.23
2018-05-29T20:48:38.795Z,99660.51
2018-05-29T20:51:04.740Z,99664.61
2018-05-29T20:53:30.734Z,99673.27
2018-05-29T20:55:56.762Z,99677.37
2018-05-29T20:58:22.760Z,99666.34
2018-05-29T21:00:48.719Z,99650.42
2018-05-29T21:03:14.685Z,99644.44
2018-05-29T21:05:40.667Z,99639.88
2018-05-29T21:08:06.698Z,99641.26
2018-05-29T21:10:32.688Z,99637.41
2018-05-29T21:12:58.659Z,99632.40
2018-05-29T21:15:24.677Z,99626.50
2018-05-29T21:17:50.639Z,99628.45
2018-05-29T21:20:16.618Z,99632.98
2018-05-29T21:22:42.551Z,99630.19
2018-05-29T21:25:08.491Z,99634.32
2018-05-29T21:27:34.489Z,99635.02
2018-05-29T21:30:00.455Z,99636.73
2018-05-29T21:32:26.412Z,99635.70
2018-05-29T21:34:52.376Z,99634.31
2018-05-29T21:37:18.336Z,99616.98
2018-05-29T21:39:44.302Z,99624.00
2018-05-29T21:42:10.230Z,99615.73
2018-05-29T21:44:36.199Z,99609.48
2018-05-29T21:47:02.230Z,99606.70
2018-05-29T21:49:28.189Z,99596.18
2018-05-29T21:51:54.175Z,99593.42
2018-05-29T21:54:20.170Z,99602.95
2018-05-29T21:56:46.103Z,99599.02
2018-05-29T21:59:12.084Z,99591.97
2018-05-29T22:01:38.016Z,99588.19
2018-05-29T22:04:03.985Z,99579.67
2018-05-29T22:06:29.940Z,99577.80
2018-05-29T22:08:55.909Z,99576.55
2018-05-29T22:11:21.862Z,99572.85
2018-05-29T22:13:47.841Z,99582.30
2018-05-29T22:16:13.780Z,99587.19
2018-05-29T22:18:39.740Z,99583.67
2018-05-29T22:21:05.678Z,99588.21
2018-05-29T22:23:31.606Z,99592.57
2018-05-29T22:25:57.579Z,99584.23
2018-05-29T22:28:23.518Z,99594.10
2018-05-29T22:30:49.481Z,99597.83
2018-05-29T22:33:15.539Z,99601.67
2018-05-29T22:35:41.554Z,99607.36
2018-05-29T22:38:07.497Z,99607.48
2018-05-29T22:40:33.454Z,99616.12
2018-05-29T22:42:59.386Z,99622.08
2018-05-29T22:45:25.345Z,99616.41
2018-05-29T22:47:51.329Z,99618.45
2018-05-29T22:50:17.297Z,99620.34
2018-05-29T22:52:43.229Z,99630.76
2018-05-29T22:55:09.203Z,99637.27
2018-05-29T22:57:35.136Z,99642.39
2018-05-29T23:00:01.096Z,99638.38
2018-05-29T23:02:27.064Z,99639.18
2018-05-29T23:04:52.993Z,99640.03
2018-05-29T23:07:18.945Z,99643.75
2018-05-29T23:09:45.033Z,99639.05
2018-05-29T23:12:10.992Z,99652.83
2018-05-29T23:14:36.928Z,99647.83
2018-05-29T23:17:02.896Z,99644.22
2018-05-29T23:19:28.868Z,99640.02
2018-05-29T23:21:54.845Z,99640.16
2018-05-29T23:24:20.863Z,99639.81
2018-05-29T23:26:46.811Z,99641.10
2018-05-29T23:29:12.764Z,99639.98
2018-05-29T23:31:38.731Z,99637.90
2018-05-29T23:34:04.687Z,99636.61
2018-05-29T23:36:30.640Z,99634.70
2018-05-29T23:38:56.584Z,99630.27
2018-05-29T23:41:22.526Z,99630.97
2018-05-29T23:43:48.463Z,99625.05
2018-05-29T23:46:14.406Z,99623.70
2018-05-29T23:48:40.355Z,99608.76
2018-05-29T23:51:06.289Z,99624.98
2018-05-29T23:53:32.231Z,99625.52
2018-05-29T23:55:58.243Z,99630.20
2018-05-29T23:58:24.156Z,99633.00
